sensor_id;sensor_type;location;lat;lon;timestamp;P1;durP1;ratioP1;P2;durP2;ratioP2
59970;SDS011;45825;45.434;9.116;2022-12-24T00:00:17;69.15;;;50.10;;
59970;SDS011;45825;45.434;9.116;2022-12-24T00:02:42;63.88;;;48.45;;
59970;SDS011;45825;45.434;9.116;2022-12-24T00:05:08;67.25;;;48.80;;
59970;SDS011;45825;45.434;9.116;2022-12-24T00:07:34;63.97;;;48.75;;
59970;SDS011;45825;45.434;9.116;2022-12-24T00:10:00;67.30;;;48.38;;
59970;SDS011;45825;45.434;9.116;2022-12-24T00:12:25;69.95;;;48.95;;
59970;SDS011;45825;45.434;9.116;2022-12-24T00:14:51;63.92;;;48.97;;
59970;SDS011;45825;45.434;9.116;2022-12-24T00:17:16;65.68;;;48.72;;
59970;SDS011;45825;45.434;9.116;2022-12-24T00:19:41;64.03;;;48.65;;
59970;SDS011;45825;45.434;9.116;2022-12-24T00:22:07;64.05;;;49.00;;
59970;SDS011;45825;45.434;9.116;2022-12-24T00:24:32;66.43;;;48.80;;
59970;SDS011;45825;45.434;9.116;2022-12-24T00:26:58;67.25;;;49.25;;
59970;SDS011;45825;45.434;9.116;2022-12-24T00:29:23;67.95;;;49.88;;
59970;SDS011;45825;45.434;9.116;2022-12-24T00:31:48;70.50;;;49.00;;
59970;SDS011;45825;45.434;9.116;2022-12-24T00:34:13;76.55;;;54.55;;
59970;SDS011;45825;45.434;9.116;2022-12-24T00:36:39;72.38;;;52.92;;
59970;SDS011;45825;45.434;9.116;2022-12-24T00:39:04;74.10;;;52.53;;
59970;SDS011;45825;45.434;9.116;2022-12-24T00:41:29;75.82;;;53.53;;
59970;SDS011;45825;45.434;9.116;2022-12-24T00:44:04;72.75;;;53.58;;
59970;SDS011;45825;45.434;9.116;2022-12-24T00:46:31;74.60;;;53.90;;
59970;SDS011;45825;45.434;9.116;2022-12-24T00:48:58;73.25;;;53.55;;
59970;SDS011;45825;45.434;9.116;2022-12-24T00:51:23;77.95;;;54.35;;
59970;SDS011;45825;45.434;9.116;2022-12-24T00:53:49;73.80;;;53.97;;
59970;SDS011;45825;45.434;9.116;2022-12-24T00:56:15;75.40;;;55.08;;
59970;SDS011;45825;45.434;9.116;2022-12-24T00:58:41;78.30;;;54.33;;
59970;SDS011;45825;45.434;9.116;2022-12-24T01:01:07;74.25;;;53.40;;
59970;SDS011;45825;45.434;9.116;2022-12-24T01:03:32;77.30;;;54.58;;
59970;SDS011;45825;45.434;9.116;2022-12-24T01:06:05;76.28;;;55.03;;
59970;SDS011;45825;45.434;9.116;2022-12-24T01:08:33;75.72;;;54.78;;
59970;SDS011;45825;45.434;9.116;2022-12-24T01:10:59;74.97;;;54.33;;
59970;SDS011;45825;45.434;9.116;2022-12-24T01:13:25;74.10;;;54.75;;
59970;SDS011;45825;45.434;9.116;2022-12-24T01:15:51;84.00;;;57.70;;
59970;SDS011;45825;45.434;9.116;2022-12-24T01:18:16;77.80;;;55.50;;
59970;SDS011;45825;45.434;9.116;2022-12-24T01:20:41;82.05;;;55.78;;
59970;SDS011;45825;45.434;9.116;2022-12-24T01:23:07;81.88;;;55.70;;
59970;SDS011;45825;45.434;9.116;2022-12-24T01:25:32;79.43;;;56.22;;
59970;SDS011;45825;45.434;9.116;2022-12-24T01:27:57;77.22;;;54.83;;
59970;SDS011;45825;45.434;9.116;2022-12-24T01:30:23;89.82;;;58.22;;
59970;SDS011;45825;45.434;9.116;2022-12-24T01:32:48;75.05;;;55.53;;
59970;SDS011;45825;45.434;9.116;2022-12-24T01:35:14;79.65;;;58.22;;
59970;SDS011;45825;45.434;9.116;2022-12-24T01:37:39;78.90;;;55.70;;
59970;SDS011;45825;45.434;9.116;2022-12-24T01:40:07;81.28;;;55.63;;
59970;SDS011;45825;45.434;9.116;2022-12-24T01:42:55;83.03;;;55.13;;
59970;SDS011;45825;45.434;9.116;2022-12-24T01:45:46;78.80;;;55.60;;
59970;SDS011;45825;45.434;9.116;2022-12-24T01:50:43;81.57;;;56.45;;
59970;SDS011;45825;45.434;9.116;2022-12-24T01:53:09;83.88;;;55.45;;
59970;SDS011;45825;45.434;9.116;2022-12-24T01:55:35;86.07;;;56.80;;
59970;SDS011;45825;45.434;9.116;2022-12-24T01:58:00;81.75;;;55.50;;
59970;SDS011;45825;45.434;9.116;2022-12-24T02:00:27;82.53;;;57.03;;
59970;SDS011;45825;45.434;9.116;2022-12-24T02:02:53;83.50;;;58.00;;
59970;SDS011;45825;45.434;9.116;2022-12-24T02:05:22;83.38;;;57.80;;
59970;SDS011;45825;45.434;9.116;2022-12-24T02:07:55;84.88;;;57.05;;
59970;SDS011;45825;45.434;9.116;2022-12-24T02:10:21;86.03;;;57.50;;
59970;SDS011;45825;45.434;9.116;2022-12-24T02:12:47;83.22;;;58.53;;
59970;SDS011;45825;45.434;9.116;2022-12-24T02:15:13;80.57;;;56.55;;
59970;SDS011;45825;45.434;9.116;2022-12-24T02:17:46;86.65;;;56.55;;
59970;SDS011;45825;45.434;9.116;2022-12-24T02:23:48;83.80;;;56.47;;
59970;SDS011;45825;45.434;9.116;2022-12-24T02:32:22;87.05;;;57.20;;
59970;SDS011;45825;45.434;9.116;2022-12-24T02:35:00;82.88;;;57.58;;
59970;SDS011;45825;45.434;9.116;2022-12-24T02:37:41;79.95;;;55.53;;
59970;SDS011;45825;45.434;9.116;2022-12-24T02:40:19;83.28;;;56.78;;
59970;SDS011;45825;45.434;9.116;2022-12-24T02:42:58;78.25;;;55.90;;
59970;SDS011;45825;45.434;9.116;2022-12-24T02:45:29;76.75;;;53.42;;
59970;SDS011;45825;45.434;9.116;2022-12-24T02:47:56;74.28;;;52.45;;
59970;SDS011;45825;45.434;9.116;2022-12-24T02:50:23;70.13;;;51.55;;
59970;SDS011;45825;45.434;9.116;2022-12-24T02:52:48;72.25;;;50.70;;
59970;SDS011;45825;45.434;9.116;2022-12-24T02:55:27;69.22;;;49.35;;
59970;SDS011;45825;45.434;9.116;2022-12-24T02:58:32;67.70;;;50.60;;
59970;SDS011;45825;45.434;9.116;2022-12-24T03:09:24;73.40;;;50.67;;
59970;SDS011;45825;45.434;9.116;2022-12-24T03:11:59;70.85;;;49.97;;
59970;SDS011;45825;45.434;9.116;2022-12-24T03:14:39;68.95;;;49.47;;
59970;SDS011;45825;45.434;9.116;2022-12-24T03:17:06;73.55;;;51.50;;
59970;SDS011;45825;45.434;9.116;2022-12-24T03:19:32;66.63;;;48.20;;
59970;SDS011;45825;45.434;9.116;2022-12-24T03:21:59;71.60;;;49.03;;
59970;SDS011;45825;45.434;9.116;2022-12-24T03:24:28;65.85;;;47.38;;
59970;SDS011;45825;45.434;9.116;2022-12-24T03:26:53;69.43;;;48.60;;
59970;SDS011;45825;45.434;9.116;2022-12-24T03:29:19;67.72;;;48.97;;
59970;SDS011;45825;45.434;9.116;2022-12-24T03:31:46;77.57;;;49.25;;
59970;SDS011;45825;45.434;9.116;2022-12-24T03:34:13;68.97;;;48.80;;
59970;SDS011;45825;45.434;9.116;2022-12-24T03:36:40;69.88;;;48.90;;
59970;SDS011;45825;45.434;9.116;2022-12-24T03:39:06;67.22;;;48.95;;
59970;SDS011;45825;45.434;9.116;2022-12-24T03:41:32;69.10;;;49.58;;
59970;SDS011;45825;45.434;9.116;2022-12-24T03:43:57;71.15;;;50.15;;
59970;SDS011;45825;45.434;9.116;2022-12-24T03:46:23;69.07;;;51.28;;
59970;SDS011;45825;45.434;9.116;2022-12-24T03:48:48;74.20;;;51.28;;
59970;SDS011;45825;45.434;9.116;2022-12-24T03:51:17;75.70;;;54.80;;
59970;SDS011;45825;45.434;9.116;2022-12-24T03:53:47;72.97;;;52.45;;
59970;SDS011;45825;45.434;9.116;2022-12-24T03:56:13;73.82;;;53.55;;
59970;SDS011;45825;45.434;9.116;2022-12-24T03:58:38;76.57;;;55.90;;
59970;SDS011;45825;45.434;9.116;2022-12-24T04:01:04;80.78;;;56.20;;
59970;SDS011;45825;45.434;9.116;2022-12-24T04:03:29;81.53;;;56.40;;
59970;SDS011;45825;45.434;9.116;2022-12-24T04:06:05;82.80;;;56.92;;
59970;SDS011;45825;45.434;9.116;2022-12-24T04:08:32;82.22;;;56.72;;
59970;SDS011;45825;45.434;9.116;2022-12-24T04:10:58;82.82;;;56.95;;
59970;SDS011;45825;45.434;9.116;2022-12-24T04:13:23;78.70;;;55.00;;
59970;SDS011;45825;45.434;9.116;2022-12-24T04:15:58;80.18;;;55.03;;
59970;SDS011;45825;45.434;9.116;2022-12-24T04:18:28;80.70;;;54.90;;
59970;SDS011;45825;45.434;9.116;2022-12-24T04:20:55;78.95;;;56.00;;
59970;SDS011;45825;45.434;9.116;2022-12-24T04:23:21;74.90;;;54.38;;
59970;SDS011;45825;45.434;9.116;2022-12-24T04:25:47;77.50;;;55.22;;
59970;SDS011;45825;45.434;9.116;2022-12-24T04:28:13;78.22;;;55.15;;
59970;SDS011;45825;45.434;9.116;2022-12-24T04:30:38;81.45;;;53.80;;
59970;SDS011;45825;45.434;9.116;2022-12-24T04:33:04;86.28;;;61.20;;
59970;SDS011;45825;45.434;9.116;2022-12-24T04:35:29;71.82;;;51.22;;
59970;SDS011;45825;45.434;9.116;2022-12-24T04:37:55;71.63;;;51.20;;
59970;SDS011;45825;45.434;9.116;2022-12-24T04:40:20;68.45;;;48.80;;
59970;SDS011;45825;45.434;9.116;2022-12-24T04:42:45;72.20;;;50.03;;
59970;SDS011;45825;45.434;9.116;2022-12-24T04:45:10;71.68;;;49.60;;
59970;SDS011;45825;45.434;9.116;2022-12-24T04:47:36;70.43;;;49.60;;
59970;SDS011;45825;45.434;9.116;2022-12-24T04:50:01;70.18;;;50.47;;
59970;SDS011;45825;45.434;9.116;2022-12-24T04:52:27;77.85;;;51.25;;
59970;SDS011;45825;45.434;9.116;2022-12-24T04:54:52;74.10;;;51.47;;
59970;SDS011;45825;45.434;9.116;2022-12-24T04:57:18;67.13;;;49.83;;
59970;SDS011;45825;45.434;9.116;2022-12-24T04:59:43;68.50;;;49.35;;
59970;SDS011;45825;45.434;9.116;2022-12-24T05:02:08;71.20;;;49.08;;
59970;SDS011;45825;45.434;9.116;2022-12-24T05:04:34;71.78;;;48.85;;
59970;SDS011;45825;45.434;9.116;2022-12-24T05:06:59;71.70;;;51.25;;
59970;SDS011;45825;45.434;9.116;2022-12-24T05:09:24;71.88;;;51.05;;
59970;SDS011;45825;45.434;9.116;2022-12-24T05:11:50;75.70;;;52.53;;
59970;SDS011;45825;45.434;9.116;2022-12-24T05:14:15;70.45;;;50.15;;
59970;SDS011;45825;45.434;9.116;2022-12-24T05:16:41;78.65;;;51.60;;
59970;SDS011;45825;45.434;9.116;2022-12-24T05:19:07;71.00;;;49.85;;
59970;SDS011;45825;45.434;9.116;2022-12-24T05:21:33;77.57;;;54.55;;
59970;SDS011;45825;45.434;9.116;2022-12-24T05:23:58;75.78;;;54.22;;
59970;SDS011;45825;45.434;9.116;2022-12-24T05:29:08;78.57;;;54.77;;
59970;SDS011;45825;45.434;9.116;2022-12-24T05:31:36;77.72;;;55.10;;
59970;SDS011;45825;45.434;9.116;2022-12-24T05:34:04;81.05;;;54.05;;
59970;SDS011;45825;45.434;9.116;2022-12-24T05:36:29;76.40;;;54.28;;
59970;SDS011;45825;45.434;9.116;2022-12-24T05:38:54;77.78;;;56.65;;
59970;SDS011;45825;45.434;9.116;2022-12-24T05:41:20;80.88;;;56.63;;
59970;SDS011;45825;45.434;9.116;2022-12-24T05:43:45;76.78;;;53.65;;
59970;SDS011;45825;45.434;9.116;2022-12-24T05:46:12;78.00;;;53.95;;
59970;SDS011;45825;45.434;9.116;2022-12-24T05:48:39;78.53;;;54.92;;
59970;SDS011;45825;45.434;9.116;2022-12-24T05:51:06;81.60;;;55.97;;
59970;SDS011;45825;45.434;9.116;2022-12-24T05:53:33;81.47;;;55.13;;
59970;SDS011;45825;45.434;9.116;2022-12-24T05:56:06;84.03;;;57.30;;
59970;SDS011;45825;45.434;9.116;2022-12-24T05:58:33;79.65;;;56.78;;
59970;SDS011;45825;45.434;9.116;2022-12-24T06:00:59;79.78;;;55.65;;
59970;SDS011;45825;45.434;9.116;2022-12-24T06:03:26;79.57;;;54.97;;
59970;SDS011;45825;45.434;9.116;2022-12-24T06:06:06;76.38;;;53.42;;
59970;SDS011;45825;45.434;9.116;2022-12-24T06:08:37;76.80;;;54.90;;
59970;SDS011;45825;45.434;9.116;2022-12-24T06:11:05;74.72;;;51.55;;
59970;SDS011;45825;45.434;9.116;2022-12-24T06:13:32;76.13;;;53.28;;
59970;SDS011;45825;45.434;9.116;2022-12-24T06:15:59;80.25;;;56.00;;
59970;SDS011;45825;45.434;9.116;2022-12-24T06:18:27;88.45;;;57.95;;
59970;SDS011;45825;45.434;9.116;2022-12-24T06:20:53;83.03;;;57.88;;
59970;SDS011;45825;45.434;9.116;2022-12-24T06:23:20;83.15;;;56.60;;
59970;SDS011;45825;45.434;9.116;2022-12-24T06:25:46;85.03;;;59.00;;
59970;SDS011;45825;45.434;9.116;2022-12-24T06:28:12;85.68;;;60.78;;
59970;SDS011;45825;45.434;9.116;2022-12-24T06:30:38;86.70;;;61.25;;
59970;SDS011;45825;45.434;9.116;2022-12-24T06:33:03;90.93;;;60.95;;
59970;SDS011;45825;45.434;9.116;2022-12-24T06:35:32;90.95;;;61.15;;
59970;SDS011;45825;45.434;9.116;2022-12-24T06:37:58;92.18;;;61.47;;
59970;SDS011;45825;45.434;9.116;2022-12-24T06:40:24;92.18;;;59.25;;
59970;SDS011;45825;45.434;9.116;2022-12-24T06:42:50;89.75;;;60.65;;
59970;SDS011;45825;45.434;9.116;2022-12-24T06:45:15;94.18;;;62.33;;
59970;SDS011;45825;45.434;9.116;2022-12-24T06:47:40;94.50;;;62.50;;
59970;SDS011;45825;45.434;9.116;2022-12-24T06:50:06;95.60;;;62.28;;
59970;SDS011;45825;45.434;9.116;2022-12-24T06:52:32;91.60;;;61.17;;
59970;SDS011;45825;45.434;9.116;2022-12-24T06:54:57;90.20;;;63.00;;
59970;SDS011;45825;45.434;9.116;2022-12-24T06:57:23;91.88;;;61.85;;
59970;SDS011;45825;45.434;9.116;2022-12-24T06:59:48;93.30;;;61.55;;
59970;SDS011;45825;45.434;9.116;2022-12-24T07:02:13;85.45;;;61.15;;
59970;SDS011;45825;45.434;9.116;2022-12-24T07:04:38;89.40;;;61.70;;
59970;SDS011;45825;45.434;9.116;2022-12-24T07:07:04;90.53;;;61.50;;
59970;SDS011;45825;45.434;9.116;2022-12-24T07:09:29;96.28;;;61.63;;
59970;SDS011;45825;45.434;9.116;2022-12-24T07:11:55;87.38;;;57.92;;
59970;SDS011;45825;45.434;9.116;2022-12-24T07:14:20;85.05;;;57.88;;
59970;SDS011;45825;45.434;9.116;2022-12-24T07:16:46;90.38;;;58.55;;
59970;SDS011;45825;45.434;9.116;2022-12-24T07:19:11;86.68;;;57.60;;
59970;SDS011;45825;45.434;9.116;2022-12-24T07:21:36;90.32;;;59.05;;
59970;SDS011;45825;45.434;9.116;2022-12-24T07:24:02;83.65;;;57.90;;
59970;SDS011;45825;45.434;9.116;2022-12-24T07:26:27;93.28;;;61.22;;
59970;SDS011;45825;45.434;9.116;2022-12-24T07:28:52;85.00;;;56.67;;
59970;SDS011;45825;45.434;9.116;2022-12-24T07:31:18;87.13;;;58.47;;
59970;SDS011;45825;45.434;9.116;2022-12-24T07:33:43;86.43;;;58.47;;
59970;SDS011;45825;45.434;9.116;2022-12-24T07:36:09;89.72;;;59.10;;
59970;SDS011;45825;45.434;9.116;2022-12-24T07:38:39;84.90;;;57.45;;
59970;SDS011;45825;45.434;9.116;2022-12-24T07:41:04;85.55;;;58.47;;
59970;SDS011;45825;45.434;9.116;2022-12-24T07:43:31;93.32;;;59.10;;
59970;SDS011;45825;45.434;9.116;2022-12-24T07:45:57;82.47;;;56.08;;
59970;SDS011;45825;45.434;9.116;2022-12-24T07:48:23;79.80;;;56.05;;
59970;SDS011;45825;45.434;9.116;2022-12-24T07:50:49;90.15;;;62.78;;
59970;SDS011;45825;45.434;9.116;2022-12-24T07:53:15;92.18;;;62.13;;
59970;SDS011;45825;45.434;9.116;2022-12-24T07:55:41;93.43;;;62.85;;
59970;SDS011;45825;45.434;9.116;2022-12-24T07:58:06;95.65;;;63.08;;
59970;SDS011;45825;45.434;9.116;2022-12-24T08:00:31;102.10;;;63.65;;
59970;SDS011;45825;45.434;9.116;2022-12-24T08:02:57;96.80;;;64.30;;
59970;SDS011;45825;45.434;9.116;2022-12-24T08:05:24;90.82;;;63.33;;
59970;SDS011;45825;45.434;9.116;2022-12-24T08:07:51;95.18;;;66.75;;
59970;SDS011;45825;45.434;9.116;2022-12-24T08:10:16;99.25;;;68.60;;
59970;SDS011;45825;45.434;9.116;2022-12-24T08:12:42;99.70;;;69.47;;
59970;SDS011;45825;45.434;9.116;2022-12-24T08:15:07;106.85;;;71.22;;
59970;SDS011;45825;45.434;9.116;2022-12-24T08:17:33;101.32;;;70.65;;
59970;SDS011;45825;45.434;9.116;2022-12-24T08:19:58;104.28;;;69.75;;
59970;SDS011;45825;45.434;9.116;2022-12-24T08:22:23;102.00;;;73.60;;
59970;SDS011;45825;45.434;9.116;2022-12-24T08:24:49;115.60;;;85.30;;
59970;SDS011;45825;45.434;9.116;2022-12-24T08:27:14;101.88;;;70.18;;
59970;SDS011;45825;45.434;9.116;2022-12-24T08:29:39;96.88;;;66.80;;
59970;SDS011;45825;45.434;9.116;2022-12-24T08:32:05;95.97;;;65.30;;
59970;SDS011;45825;45.434;9.116;2022-12-24T08:34:30;98.93;;;65.03;;
59970;SDS011;45825;45.434;9.116;2022-12-24T08:36:55;88.35;;;62.53;;
59970;SDS011;45825;45.434;9.116;2022-12-24T08:39:21;97.50;;;67.70;;
59970;SDS011;45825;45.434;9.116;2022-12-24T08:41:47;96.45;;;67.93;;
59970;SDS011;45825;45.434;9.116;2022-12-24T08:44:12;92.78;;;66.35;;
59970;SDS011;45825;45.434;9.116;2022-12-24T08:46:37;101.88;;;66.97;;
59970;SDS011;45825;45.434;9.116;2022-12-24T08:49:03;95.75;;;66.55;;
59970;SDS011;45825;45.434;9.116;2022-12-24T08:51:28;96.93;;;66.75;;
59970;SDS011;45825;45.434;9.116;2022-12-24T08:53:53;94.68;;;68.28;;
59970;SDS011;45825;45.434;9.116;2022-12-24T08:56:19;99.13;;;69.78;;
59970;SDS011;45825;45.434;9.116;2022-12-24T08:58:44;99.10;;;67.75;;
59970;SDS011;45825;45.434;9.116;2022-12-24T09:01:16;93.07;;;65.20;;
59970;SDS011;45825;45.434;9.116;2022-12-24T09:03:43;89.85;;;62.97;;
59970;SDS011;45825;45.434;9.116;2022-12-24T09:06:09;84.53;;;58.22;;
59970;SDS011;45825;45.434;9.116;2022-12-24T09:08:34;85.75;;;59.92;;
59970;SDS011;45825;45.434;9.116;2022-12-24T09:11:03;85.75;;;59.15;;
59970;SDS011;45825;45.434;9.116;2022-12-24T09:13:29;77.90;;;55.58;;
59970;SDS011;45825;45.434;9.116;2022-12-24T09:15:55;84.63;;;56.47;;
59970;SDS011;45825;45.434;9.116;2022-12-24T09:18:20;82.38;;;56.65;;
59970;SDS011;45825;45.434;9.116;2022-12-24T09:20:45;79.72;;;53.95;;
59970;SDS011;45825;45.434;9.116;2022-12-24T09:23:11;80.03;;;54.42;;
59970;SDS011;45825;45.434;9.116;2022-12-24T09:25:40;82.30;;;54.53;;
59970;SDS011;45825;45.434;9.116;2022-12-24T09:28:06;81.85;;;55.72;;
59970;SDS011;45825;45.434;9.116;2022-12-24T14:08:48;126.30;;;67.15;;
59970;SDS011;45825;45.434;9.116;2022-12-24T14:11:19;131.57;;;68.30;;
59970;SDS011;45825;45.434;9.116;2022-12-24T14:19:03;117.90;;;63.28;;
59970;SDS011;45825;45.434;9.116;2022-12-24T14:21:37;118.10;;;64.22;;
59970;SDS011;45825;45.434;9.116;2022-12-24T14:24:13;112.97;;;64.18;;
59970;SDS011;45825;45.434;9.116;2022-12-24T14:26:46;117.45;;;64.28;;
59970;SDS011;45825;45.434;9.116;2022-12-24T14:29:16;111.85;;;64.45;;
59970;SDS011;45825;45.434;9.116;2022-12-24T14:31:53;110.93;;;64.03;;
59970;SDS011;45825;45.434;9.116;2022-12-24T14:34:20;112.88;;;63.78;;
59970;SDS011;45825;45.434;9.116;2022-12-24T14:36:46;110.50;;;64.55;;
59970;SDS011;45825;45.434;9.116;2022-12-24T14:39:28;109.45;;;62.83;;
59970;SDS011;45825;45.434;9.116;2022-12-24T14:50:39;113.82;;;65.00;;
59970;SDS011;45825;45.434;9.116;2022-12-24T14:53:20;108.32;;;64.07;;
59970;SDS011;45825;45.434;9.116;2022-12-24T14:55:52;110.15;;;64.00;;
59970;SDS011;45825;45.434;9.116;2022-12-24T14:58:24;113.05;;;62.42;;
59970;SDS011;45825;45.434;9.116;2022-12-24T15:00:52;108.77;;;64.27;;
59970;SDS011;45825;45.434;9.116;2022-12-24T15:03:37;117.82;;;68.55;;
59970;SDS011;45825;45.434;9.116;2022-12-24T15:06:03;119.07;;;68.68;;
59970;SDS011;45825;45.434;9.116;2022-12-24T15:08:38;109.22;;;67.53;;
59970;SDS011;45825;45.434;9.116;2022-12-24T15:11:12;112.63;;;65.13;;
59970;SDS011;45825;45.434;9.116;2022-12-24T15:13:42;112.85;;;64.43;;
59970;SDS011;45825;45.434;9.116;2022-12-24T15:16:11;106.30;;;63.47;;
59970;SDS011;45825;45.434;9.116;2022-12-24T15:18:42;107.13;;;64.32;;
59970;SDS011;45825;45.434;9.116;2022-12-24T15:21:17;109.07;;;66.65;;
59970;SDS011;45825;45.434;9.116;2022-12-24T15:23:49;110.50;;;63.10;;
59970;SDS011;45825;45.434;9.116;2022-12-24T15:26:20;103.55;;;64.45;;
59970;SDS011;45825;45.434;9.116;2022-12-24T15:28:46;103.82;;;61.80;;
59970;SDS011;45825;45.434;9.116;2022-12-24T15:31:16;108.57;;;67.00;;
59970;SDS011;45825;45.434;9.116;2022-12-24T15:33:44;106.05;;;64.72;;
59970;SDS011;45825;45.434;9.116;2022-12-24T15:36:32;101.68;;;63.83;;
59970;SDS011;45825;45.434;9.116;2022-12-24T15:39:12;99.85;;;61.33;;
59970;SDS011;45825;45.434;9.116;2022-12-24T15:41:41;102.78;;;63.20;;
59970;SDS011;45825;45.434;9.116;2022-12-24T15:44:27;99.13;;;60.92;;
59970;SDS011;45825;45.434;9.116;2022-12-24T15:46:58;97.68;;;60.63;;
59970;SDS011;45825;45.434;9.116;2022-12-24T15:49:24;99.47;;;60.63;;
59970;SDS011;45825;45.434;9.116;2022-12-24T15:51:52;102.38;;;63.85;;
59970;SDS011;45825;45.434;9.116;2022-12-24T15:54:19;102.60;;;62.50;;
59970;SDS011;45825;45.434;9.116;2022-12-24T15:56:46;100.57;;;60.67;;
59970;SDS011;45825;45.434;9.116;2022-12-24T16:08:02;106.18;;;62.63;;
59970;SDS011;45825;45.434;9.116;2022-12-24T16:13:15;102.32;;;60.22;;
59970;SDS011;45825;45.434;9.116;2022-12-24T16:15:49;101.65;;;62.50;;
59970;SDS011;45825;45.434;9.116;2022-12-24T16:18:21;99.43;;;60.53;;
59970;SDS011;45825;45.434;9.116;2022-12-24T16:20:49;102.95;;;61.35;;
59970;SDS011;45825;45.434;9.116;2022-12-24T16:23:19;106.60;;;64.15;;
59970;SDS011;45825;45.434;9.116;2022-12-24T16:25:47;105.43;;;61.10;;
59970;SDS011;45825;45.434;9.116;2022-12-24T16:28:14;100.45;;;60.42;;
59970;SDS011;45825;45.434;9.116;2022-12-24T16:30:40;96.70;;;59.38;;
59970;SDS011;45825;45.434;9.116;2022-12-24T16:33:11;99.95;;;60.50;;
59970;SDS011;45825;45.434;9.116;2022-12-24T16:35:39;99.25;;;60.40;;
59970;SDS011;45825;45.434;9.116;2022-12-24T16:38:04;100.53;;;60.58;;
59970;SDS011;45825;45.434;9.116;2022-12-24T16:40:29;102.93;;;58.05;;
59970;SDS011;45825;45.434;9.116;2022-12-24T16:42:55;95.65;;;59.60;;
59970;SDS011;45825;45.434;9.116;2022-12-24T16:45:39;97.22;;;58.05;;
59970;SDS011;45825;45.434;9.116;2022-12-24T16:48:05;101.78;;;59.65;;
59970;SDS011;45825;45.434;9.116;2022-12-24T16:50:32;99.22;;;59.03;;
59970;SDS011;45825;45.434;9.116;2022-12-24T16:52:58;99.53;;;58.20;;
59970;SDS011;45825;45.434;9.116;2022-12-24T16:55:23;101.90;;;58.88;;
59970;SDS011;45825;45.434;9.116;2022-12-24T16:57:48;100.55;;;58.08;;
59970;SDS011;45825;45.434;9.116;2022-12-24T17:00:18;102.88;;;58.75;;
59970;SDS011;45825;45.434;9.116;2022-12-24T17:02:46;102.20;;;60.47;;
59970;SDS011;45825;45.434;9.116;2022-12-24T17:05:14;107.03;;;61.20;;
59970;SDS011;45825;45.434;9.116;2022-12-24T17:07:39;109.50;;;61.03;;
59970;SDS011;45825;45.434;9.116;2022-12-24T17:10:07;106.43;;;62.55;;
59970;SDS011;45825;45.434;9.116;2022-12-24T17:12:34;106.82;;;61.67;;
59970;SDS011;45825;45.434;9.116;2022-12-24T17:15:00;115.65;;;63.92;;
59970;SDS011;45825;45.434;9.116;2022-12-24T17:17:26;111.60;;;63.28;;
59970;SDS011;45825;45.434;9.116;2022-12-24T17:19:53;126.75;;;65.22;;
59970;SDS011;45825;45.434;9.116;2022-12-24T17:22:20;120.97;;;64.22;;
59970;SDS011;45825;45.434;9.116;2022-12-24T17:24:49;122.07;;;65.18;;
59970;SDS011;45825;45.434;9.116;2022-12-24T17:27:14;117.03;;;64.15;;
59970;SDS011;45825;45.434;9.116;2022-12-24T17:29:40;122.80;;;66.78;;
59970;SDS011;45825;45.434;9.116;2022-12-24T17:32:06;122.03;;;66.45;;
59970;SDS011;45825;45.434;9.116;2022-12-24T17:34:31;122.72;;;66.10;;
59970;SDS011;45825;45.434;9.116;2022-12-24T17:36:56;122.80;;;69.07;;
59970;SDS011;45825;45.434;9.116;2022-12-24T17:39:23;118.43;;;67.70;;
59970;SDS011;45825;45.434;9.116;2022-12-24T17:41:48;118.45;;;66.75;;
59970;SDS011;45825;45.434;9.116;2022-12-24T17:44:14;121.15;;;67.43;;
59970;SDS011;45825;45.434;9.116;2022-12-24T17:46:40;129.38;;;68.60;;
59970;SDS011;45825;45.434;9.116;2022-12-24T17:49:06;122.03;;;67.22;;
59970;SDS011;45825;45.434;9.116;2022-12-24T17:51:32;123.47;;;69.32;;
59970;SDS011;45825;45.434;9.116;2022-12-24T17:54:00;123.35;;;67.70;;
59970;SDS011;45825;45.434;9.116;2022-12-24T17:56:27;123.38;;;64.75;;
59970;SDS011;45825;45.434;9.116;2022-12-24T17:58:53;118.47;;;66.72;;
59970;SDS011;45825;45.434;9.116;2022-12-24T18:01:19;117.43;;;64.15;;
59970;SDS011;45825;45.434;9.116;2022-12-24T18:03:47;122.50;;;65.72;;
59970;SDS011;45825;45.434;9.116;2022-12-24T18:06:14;118.45;;;67.13;;
59970;SDS011;45825;45.434;9.116;2022-12-24T18:08:40;115.40;;;65.68;;
59970;SDS011;45825;45.434;9.116;2022-12-24T18:11:13;115.65;;;65.57;;
59970;SDS011;45825;45.434;9.116;2022-12-24T18:13:40;114.40;;;62.67;;
59970;SDS011;45825;45.434;9.116;2022-12-24T18:16:23;118.38;;;65.63;;
59970;SDS011;45825;45.434;9.116;2022-12-24T18:18:48;109.47;;;61.15;;
59970;SDS011;45825;45.434;9.116;2022-12-24T18:21:15;111.10;;;62.47;;
59970;SDS011;45825;45.434;9.116;2022-12-24T18:23:42;108.80;;;62.60;;
59970;SDS011;45825;45.434;9.116;2022-12-24T18:26:09;108.88;;;62.30;;
59970;SDS011;45825;45.434;9.116;2022-12-24T18:28:35;108.82;;;62.40;;
59970;SDS011;45825;45.434;9.116;2022-12-24T18:31:02;111.75;;;62.53;;
59970;SDS011;45825;45.434;9.116;2022-12-24T18:33:30;111.43;;;63.35;;
59970;SDS011;45825;45.434;9.116;2022-12-24T18:35:56;117.78;;;64.97;;
59970;SDS011;45825;45.434;9.116;2022-12-24T18:38:22;111.47;;;62.58;;
59970;SDS011;45825;45.434;9.116;2022-12-24T18:40:47;110.47;;;62.97;;
59970;SDS011;45825;45.434;9.116;2022-12-24T18:43:12;107.50;;;62.90;;
59970;SDS011;45825;45.434;9.116;2022-12-24T18:45:41;112.97;;;64.57;;
59970;SDS011;45825;45.434;9.116;2022-12-24T18:48:09;107.57;;;61.13;;
59970;SDS011;45825;45.434;9.116;2022-12-24T18:50:36;114.90;;;64.20;;
59970;SDS011;45825;45.434;9.116;2022-12-24T18:53:03;107.78;;;61.33;;
59970;SDS011;45825;45.434;9.116;2022-12-24T18:55:29;114.50;;;62.63;;
59970;SDS011;45825;45.434;9.116;2022-12-24T18:57:57;108.50;;;62.05;;
59970;SDS011;45825;45.434;9.116;2022-12-24T19:00:23;106.57;;;60.75;;
59970;SDS011;45825;45.434;9.116;2022-12-24T19:02:48;105.03;;;61.50;;
59970;SDS011;45825;45.434;9.116;2022-12-24T19:05:14;107.68;;;62.03;;
59970;SDS011;45825;45.434;9.116;2022-12-24T19:07:39;110.10;;;63.17;;
59970;SDS011;45825;45.434;9.116;2022-12-24T19:10:06;114.63;;;61.97;;
59970;SDS011;45825;45.434;9.116;2022-12-24T19:12:32;113.18;;;63.63;;
59970;SDS011;45825;45.434;9.116;2022-12-24T19:14:58;103.63;;;60.90;;
59970;SDS011;45825;45.434;9.116;2022-12-24T19:17:23;109.78;;;61.83;;
59970;SDS011;45825;45.434;9.116;2022-12-24T19:19:51;112.88;;;61.45;;
59970;SDS011;45825;45.434;9.116;2022-12-24T19:22:17;109.82;;;61.35;;
59970;SDS011;45825;45.434;9.116;2022-12-24T19:24:42;119.13;;;60.90;;
59970;SDS011;45825;45.434;9.116;2022-12-24T19:27:07;108.57;;;60.63;;
59970;SDS011;45825;45.434;9.116;2022-12-24T19:29:33;101.75;;;57.20;;
59970;SDS011;45825;45.434;9.116;2022-12-24T19:31:58;96.70;;;54.42;;
59970;SDS011;45825;45.434;9.116;2022-12-24T19:34:24;98.90;;;53.85;;
59970;SDS011;45825;45.434;9.116;2022-12-24T19:36:49;94.95;;;53.05;;
59970;SDS011;45825;45.434;9.116;2022-12-24T19:39:14;95.25;;;52.53;;
59970;SDS011;45825;45.434;9.116;2022-12-24T19:41:40;94.60;;;51.65;;
59970;SDS011;45825;45.434;9.116;2022-12-24T19:44:05;93.78;;;53.17;;
59970;SDS011;45825;45.434;9.116;2022-12-24T19:46:32;99.88;;;55.05;;